RELEVES METEO NEUVILLE
Donnes mto: Actuelle jeudi, 08/11/2018 17:35
Date Horaire Temp. E. Hum. E. P.atmo. Pluie Vent Direction Direction P. de rose Temp au vent Rafales
08/11/2018 17:35 9,3 C 85 % 1017,5 hPa 0,0 mm 0,1 km/h (0 Bft) SE 126 6,9 C 9,3 C 3,2 km/h (1 Bft)
08/11/2018 17:30 9,4 C 85 % 1017,4 hPa 0,0 mm 0,0 km/h (0 Bft) S 173 7,0 C 9,4 C 0,0 km/h (0 Bft)
08/11/2018 17:25 9,5 C 85 % 1017,5 hPa 0,0 mm 0,2 km/h (0 Bft) SO 229 7,1 C 9,5 C 4,8 km/h (1 Bft)
08/11/2018 17:20 9,6 C 84 % 1017,6 hPa 0,0 mm 0,0 km/h (0 Bft) SO 232 7,0 C 9,6 C 1,6 km/h (1 Bft)
08/11/2018 17:15 9,7 C 84 % 1017,6 hPa 0,0 mm 0,4 km/h (0 Bft) SO 233 7,1 C 9,7 C 8,0 km/h (2 Bft)
08/11/2018 17:10 9,8 C 84 % 1017,6 hPa 0,0 mm 0,4 km/h (0 Bft) S 173 7,2 C 9,8 C 6,4 km/h (2 Bft)
08/11/2018 17:05 9,8 C 83 % 1017,6 hPa 0,0 mm 0,1 km/h (0 Bft) E-SE 122 7,1 C 9,8 C 3,2 km/h (1 Bft)
08/11/2018 17:00 9,9 C 83 % 1017,6 hPa 0,0 mm 0,1 km/h (0 Bft) SO 214 7,2 C 9,9 C 3,2 km/h (1 Bft)
08/11/2018 16:55 10,1 C 83 % 1017,6 hPa 0,0 mm 0,1 km/h (0 Bft) E-SE 121 7,3 C 10,1 C 3,2 km/h (1 Bft)
08/11/2018 16:50 10,2 C 83 % 1017,6 hPa 0,0 mm 0,6 km/h (0 Bft) E-SE 118 7,4 C 10,2 C 6,4 km/h (2 Bft)
08/11/2018 16:45 10,3 C 82 % 1017,6 hPa 0,0 mm 0,0 km/h (0 Bft) SE 124 7,4 C 10,3 C 1,6 km/h (1 Bft)
08/11/2018 16:40 10,4 C 82 % 1017,6 hPa 0,0 mm 0,3 km/h (0 Bft) E-SE 123 7,5 C 10,4 C 8,0 km/h (2 Bft)
08/11/2018 16:35 10,5 C 82 % 1017,6 hPa 0,0 mm 0,4 km/h (0 Bft) SE 130 7,6 C 10,5 C 8,0 km/h (2 Bft)
08/11/2018 16:30 10,7 C 81 % 1017,5 hPa 0,0 mm 0,9 km/h (0 Bft) NO 319 7,6 C 10,7 C 8,0 km/h (2 Bft)
08/11/2018 16:25 10,8 C 81 % 1017,6 hPa 0,0 mm 0,0 km/h (0 Bft) SE 125 7,7 C 10,8 C 1,6 km/h (1 Bft)
08/11/2018 16:20 11,0 C 81 % 1017,6 hPa 0,0 mm 0,8 km/h (0 Bft) S 180 7,9 C 11,0 C 8,0 km/h (2 Bft)
08/11/2018 16:15 11,1 C 80 % 1017,6 hPa 0,0 mm 0,3 km/h (0 Bft) S 179 7,8 C 11,1 C 6,4 km/h (2 Bft)
08/11/2018 16:10 11,3 C 79 % 1017,6 hPa 0,0 mm 0,3 km/h (0 Bft) E-SE 115 7,8 C 11,3 C 8,0 km/h (2 Bft)
08/11/2018 16:05 11,4 C 79 % 1017,7 hPa 0,0 mm 0,3 km/h (0 Bft) SE 130 7,9 C 11,4 C 3,2 km/h (1 Bft)
08/11/2018 16:00 11,6 C 78 % 1017,8 hPa 0,0 mm 0,7 km/h (0 Bft) SO 229 7,9 C 11,6 C 8,0 km/h (2 Bft)
08/11/2018 15:55 11,7 C 77 % 1017,8 hPa 0,0 mm 0,5 km/h (0 Bft) S-SE 157 7,8 C 11,7 C 9,7 km/h (2 Bft)
_ Min-Heure 07:10 15:50 00:00 - 00:20 - - 07:10 07:10 00:20
Minimum _ 5,9 C 76 % 1011,4 hPa - 0,0 km/h (0 Bft) - - 5,0 C 5,9 C 0,0 km/h (0 Bft)
_ Max-Heure 14:25 09:40 11:00 00:00 10:05 - - 01:05 14:25 10:10
Maximum _ 11,9 C 95 % 1020,7 hPa 0,0 mm 5,2 km/h
S (1 Bft)
- - 9,1 C 11,9 C 16,1 km/h
S-SO (3 Bft)
Moyenne _ 8,7 C 89 % 1017,6 hPa #0,0 mm 0,9 km/h (0 Bft) S-SO - 7,0 C 8,7 C 6,0 km/h (2 Bft)
NEUVILLE ST REMY